Time;durP1;ratioP1;P1;durP2;ratioP2;P2;SDS_P1;SDS_P2;PMS_P1;PMS_P2;Temp;Humidity;BMP_temperature;BMP_pressure;BME280_temperature;BME280_humidity;BME280_pressure;Samples;Min_cycle;Max_cycle;Signal;HPM_P1;HPM_P2
2021/10/22 00:00:10;;;;;;;;;;;;;;;12.29;50.88;100425.13;5049686;27;97261;-84
2021/10/22 00:02:41;;;;;;;;;;;;;;;12.25;50.98;100443.91;5040036;28;96981;-84
2021/10/22 00:05:08;;;;;;;;;;;;;;;11.92;51.67;100441.03;5044218;28;97878;-84
2021/10/22 00:10:19;;;;;;;;;;;;;;;12.13;51.24;100442.72;5042962;28;96759;-85
2021/10/22 00:12:46;;;;;;;;;;;;;;;11.53;52.85;100454.25;5037116;28;96925;-84
2021/10/22 00:15:13;;;;;;;;;;;;;;;11.69;52.50;100446.47;5046916;28;97101;-83
2021/10/22 00:17:43;;;;;;;;;;;;;;;11.97;52.16;100452.28;5059422;27;100693;-84
2021/10/22 00:20:10;;;;;;;;;;;;;;;11.72;52.50;100463.09;5078455;27;97372;-83
2021/10/22 00:22:38;;;;;;;;;;;;;;;11.97;51.98;100457.56;5049841;27;96405;-83
2021/10/22 00:25:06;;;;;;;;;;;;;;;11.89;51.87;100457.91;5045676;28;100038;-85
2021/10/22 00:27:34;;;;;;;;;;;;;;;11.90;51.84;100459.63;5060114;27;99940;-84
2021/10/22 00:30:01;;;;;;;;;;;;;;;11.93;52.06;100451.56;5055114;27;96711;-85
2021/10/22 00:32:28;;;;;;;;;;;;;;;11.72;52.03;100451.63;5053825;27;96963;-84
2021/10/22 00:34:57;;;;;;;;;;;;;;;11.59;52.56;100456.63;5026020;28;97558;-84
2021/10/22 00:37:23;;;;;;;;;;;;;;;11.58;52.47;100471.63;5037273;28;100923;-84
2021/10/22 00:42:34;;;;;;;;;;;;;;;11.49;52.97;100472.03;5054533;27;96878;-83
2021/10/22 00:45:03;;;;;;;;;;;;;;;11.52;52.64;100465.75;5056028;28;97937;-83
2021/10/22 00:47:29;;;;;;;;;;;;;;;11.46;52.78;100482.75;5057812;27;98909;-83
2021/10/22 00:50:00;;;;;;;;;;;;;;;11.64;51.77;100470.50;5059417;27;96647;-85
2021/10/22 00:52:28;;;;;;;;;;;;;;;11.59;51.96;100473.34;5055982;27;96580;-84
2021/10/22 00:54:57;;;;;;;;;;;;;;;11.53;52.26;100468.34;5050006;27;98329;-83
2021/10/22 00:57:24;;;;;;;;;;;;;;;11.72;51.74;100480.75;5053050;28;97434;-84
2021/10/22 00:59:51;;;;;;;;;;;;;;;11.97;51.12;100474.31;5048473;28;96859;-83
2021/10/22 01:02:17;;;;;;;;;;;;;;;11.52;52.57;100476.34;5046332;28;96733;-84
2021/10/22 01:04:44;;;;;;;;;;;;;;;11.70;51.75;100474.66;5051327;27;99374;-84
2021/10/22 01:09:55;;;;;;;;;;;;;;;11.43;52.25;100487.31;5032103;27;97653;-83
2021/10/22 01:12:22;;;;;;;;;;;;;;;11.10;53.06;100479.00;5042257;28;96823;-84
2021/10/22 01:14:51;;;;;;;;;;;;;;;11.59;51.87;100473.34;5022001;28;97520;-83
2021/10/22 01:20:13;;;;;;;;;;;;;;;11.42;52.10;100470.56;5051934;27;96679;-84
2021/10/22 01:22:49;;;;;;;;;;;;;;;10.86;53.72;100480.03;5025726;28;96844;-84
2021/10/22 01:25:16;;;;;;;;;;;;;;;11.35;52.52;100466.50;5048085;28;98332;-84
2021/10/22 01:27:47;;;;;;;;;;;;;;;10.96;53.33;100476.09;5042171;28;97233;-85
2021/10/22 01:30:17;;;;;;;;;;;;;;;11.08;53.22;100487.03;5044802;27;96792;-84
2021/10/22 01:32:44;;;;;;;;;;;;;;;11.17;53.03;100481.34;5055508;27;96809;-84
2021/10/22 01:35:11;;;;;;;;;;;;;;;11.25;52.93;100474.88;5053937;28;99363;-85
2021/10/22 01:37:41;;;;;;;;;;;;;;;11.13;52.61;100471.81;5067785;27;99131;-85
2021/10/22 01:40:16;;;;;;;;;;;;;;;11.15;53.25;100470.00;5046175;27;96760;-84
2021/10/22 01:42:56;;;;;;;;;;;;;;;11.27;52.75;100478.31;5035582;28;96560;-84
2021/10/22 01:45:23;;;;;;;;;;;;;;;11.10;53.22;100471.94;5034108;28;98121;-86
2021/10/22 01:47:50;;;;;;;;;;;;;;;11.06;53.40;100477.44;5033848;28;100076;-84
2021/10/22 01:50:20;;;;;;;;;;;;;;;11.06;53.35;100478.28;5051266;27;96862;-83
2021/10/22 01:55:31;;;;;;;;;;;;;;;11.57;51.92;100491.06;5024578;28;96599;-85
2021/10/22 01:58:02;;;;;;;;;;;;;;;11.35;51.96;100479.72;5049075;28;99166;-85
2021/10/22 02:00:29;;;;;;;;;;;;;;;11.45;52.22;100491.63;5062738;27;97193;-84
2021/10/22 02:02:57;;;;;;;;;;;;;;;11.22;52.89;100493.53;5046701;28;97228;-85
2021/10/22 02:05:23;;;;;;;;;;;;;;;11.30;52.46;100486.09;5054375;28;99449;-84
2021/10/22 02:07:50;;;;;;;;;;;;;;;10.95;52.96;100490.25;5056408;27;98273;-84
2021/10/22 02:10:21;;;;;;;;;;;;;;;11.00;53.63;100485.63;5070268;27;96337;-84
2021/10/22 02:12:50;;;;;;;;;;;;;;;11.26;52.73;100484.53;5051404;27;96686;-83
2021/10/22 02:15:17;;;;;;;;;;;;;;;11.09;52.88;100477.31;5044999;28;100024;-84
2021/10/22 02:17:44;;;;;;;;;;;;;;;10.88;53.70;100491.41;5052708;27;100261;-84
2021/10/22 02:20:11;;;;;;;;;;;;;;;11.23;52.88;100498.72;5043158;27;96907;-83
2021/10/22 02:22:39;;;;;;;;;;;;;;;11.35;52.54;100484.16;5044344;27;97026;-85
2021/10/22 02:25:06;;;;;;;;;;;;;;;11.34;52.63;100485.94;5043252;27;100436;-85
2021/10/22 02:27:33;;;;;;;;;;;;;;;11.06;53.08;100491.50;5043912;27;101844;-85
2021/10/22 02:30:01;;;;;;;;;;;;;;;10.82;53.77;100489.03;5029813;27;97196;-85
2021/10/22 02:32:31;;;;;;;;;;;;;;;11.33;52.70;100491.28;5047726;27;96867;-85
2021/10/22 02:35:02;;;;;;;;;;;;;;;10.87;53.60;100500.25;5062679;27;100441;-85
2021/10/22 02:37:28;;;;;;;;;;;;;;;11.14;53.24;100493.84;5038715;27;99946;-84
2021/10/22 02:39:57;;;;;;;;;;;;;;;11.45;52.26;100491.63;5037630;27;97163;-84
2021/10/22 02:42:23;;;;;;;;;;;;;;;11.42;52.18;100490.91;5025545;28;96729;-84
2021/10/22 02:44:50;;;;;;;;;;;;;;;11.38;52.28;100505.16;5062966;27;96929;-84
2021/10/22 02:47:22;;;;;;;;;;;;;;;11.35;52.38;100506.19;5046506;28;98503;-83
2021/10/22 02:49:48;;;;;;;;;;;;;;;11.57;51.95;100508.75;5032756;28;96624;-83
2021/10/22 02:52:15;;;;;;;;;;;;;;;11.68;51.36;100503.00;5049396;28;97361;-84
2021/10/22 02:54:41;;;;;;;;;;;;;;;11.40;52.21;100512.13;5049980;28;100102;-85
2021/10/22 02:57:15;;;;;;;;;;;;;;;11.26;52.34;100500.41;5051828;28;99976;-84
2021/10/22 02:59:48;;;;;;;;;;;;;;;11.24;52.31;100499.59;5045905;27;98242;-83
2021/10/22 03:02:14;;;;;;;;;;;;;;;11.43;52.20;100497.88;5051642;28;96856;-83
2021/10/22 03:04:43;;;;;;;;;;;;;;;11.38;52.44;100500.75;5046192;27;100380;-83
2021/10/22 03:07:11;;;;;;;;;;;;;;;11.68;51.57;100503.88;5050169;27;96873;-83
2021/10/22 03:09:38;;;;;;;;;;;;;;;11.77;51.20;100494.66;5052666;27;96112;-83
2021/10/22 03:12:07;;;;;;;;;;;;;;;10.74;53.78;100498.13;5053734;27;97719;-83
2021/10/22 03:14:33;;;;;;;;;;;;;;;11.29;52.61;100506.41;5051980;27;99934;-83
2021/10/22 03:17:00;;;;;;;;;;;;;;;11.43;52.15;100506.69;5052343;28;99532;-83
2021/10/22 03:19:27;;;;;;;;;;;;;;;11.07;52.41;100503.81;5051794;27;97928;-82
2021/10/22 03:21:55;;;;;;;;;;;;;;;11.64;51.92;100506.69;5046126;27;96178;-84
2021/10/22 03:24:21;;;;;;;;;;;;;;;11.42;52.21;100501.47;5049119;27;99847;-85
2021/10/22 03:26:48;;;;;;;;;;;;;;;11.41;52.31;100511.19;5052261;27;98226;-85
2021/10/22 03:29:19;;;;;;;;;;;;;;;10.87;53.88;100509.06;5049962;27;96651;-84
2021/10/22 03:31:48;;;;;;;;;;;;;;;11.27;52.66;100500.34;5010484;28;96841;-84
2021/10/22 03:34:15;;;;;;;;;;;;;;;11.53;51.96;100504.53;4998690;28;99746;-84
2021/10/22 03:36:42;;;;;;;;;;;;;;;11.33;52.38;100499.22;5008679;28;96719;-83
2021/10/22 03:39:11;;;;;;;;;;;;;;;11.43;51.77;100493.47;5009300;28;96769;-83
2021/10/22 03:41:37;;;;;;;;;;;;;;;11.31;52.31;100503.69;5013686;28;96713;-84
2021/10/22 03:44:05;;;;;;;;;;;;;;;11.49;52.02;100505.56;5009770;28;99601;-84
2021/10/22 03:46:32;;;;;;;;;;;;;;;11.71;51.64;100500.19;5014302;28;97780;-84
2021/10/22 03:48:59;;;;;;;;;;;;;;;11.71;51.13;100492.25;5015297;28;96679;-83
2021/10/22 03:51:26;;;;;;;;;;;;;;;11.13;52.55;100505.34;5003572;28;97770;-84
2021/10/22 03:53:52;;;;;;;;;;;;;;;11.24;52.73;100503.09;5002607;28;97398;-84
2021/10/22 03:56:22;;;;;;;;;;;;;;;11.38;52.36;100511.31;5008303;28;96828;-84
2021/10/22 03:58:49;;;;;;;;;;;;;;;11.49;51.76;100501.13;5002750;28;96770;-84
2021/10/22 04:01:18;;;;;;;;;;;;;;;11.55;51.65;100506.16;5001638;28;97756;-82
2021/10/22 04:03:45;;;;;;;;;;;;;;;11.37;51.98;100508.72;4999821;28;99339;-84
2021/10/22 04:06:12;;;;;;;;;;;;;;;11.54;51.75;100506.25;4990978;28;96851;-83
2021/10/22 04:08:40;;;;;;;;;;;;;;;10.95;53.72;100506.97;4996435;28;97197;-83
2021/10/22 04:11:09;;;;;;;;;;;;;;;10.83;54.09;100506.59;5003014;28;96827;-82
2021/10/22 04:13:43;;;;;;;;;;;;;;;11.14;53.09;100512.34;5002597;28;99694;-83
2021/10/22 04:16:10;;;;;;;;;;;;;;;11.31;52.52;100498.41;5001362;28;99219;-82
2021/10/22 04:18:37;;;;;;;;;;;;;;;11.02;53.09;100502.28;4999930;28;96804;-83
2021/10/22 04:21:04;;;;;;;;;;;;;;;11.33;52.67;100508.00;5005467;28;96797;-85
2021/10/22 04:23:32;;;;;;;;;;;;;;;11.33;52.61;100509.78;4999661;28;99148;-84
2021/10/22 04:26:02;;;;;;;;;;;;;;;11.23;52.56;100511.09;4998447;28;100095;-84
2021/10/22 04:28:29;;;;;;;;;;;;;;;11.23;52.47;100504.03;5002724;28;96592;-84
2021/10/22 04:31:04;;;;;;;;;;;;;;;11.03;53.15;100515.41;4991428;28;96636;-84
2021/10/22 04:33:31;;;;;;;;;;;;;;;11.04;53.29;100506.56;5017734;28;99273;-83
2021/10/22 04:36:01;;;;;;;;;;;;;;;11.33;52.41;100501.88;5020951;28;96791;-83
2021/10/22 04:41:12;;;;;;;;;;;;;;;11.20;52.67;100506.81;5001437;28;96717;-82
2021/10/22 04:43:39;;;;;;;;;;;;;;;10.59;54.77;100505.78;4996123;28;98469;-83
2021/10/22 04:46:07;;;;;;;;;;;;;;;11.11;53.08;100499.25;4994206;28;97831;-82
2021/10/22 04:48:35;;;;;;;;;;;;;;;11.31;52.53;100501.91;4998410;28;98745;-82
2021/10/22 04:51:01;;;;;;;;;;;;;;;11.06;52.67;100501.22;4993167;28;98349;-83
2021/10/22 04:53:29;;;;;;;;;;;;;;;11.29;52.26;100506.41;4988837;28;99933;-82
2021/10/22 04:55:56;;;;;;;;;;;;;;;11.24;52.26;100495.16;5000611;28;99918;-82
2021/10/22 04:58:23;;;;;;;;;;;;;;;11.00;52.82;100502.34;5003655;28;96790;-83
2021/10/22 05:00:49;;;;;;;;;;;;;;;11.22;52.54;100494.38;5002158;28;96761;-82
2021/10/22 05:03:18;;;;;;;;;;;;;;;11.18;52.62;100498.94;5000432;28;101653;-84
2021/10/22 05:05:44;;;;;;;;;;;;;;;11.17;52.58;100505.13;5001103;28;97499;-82
2021/10/22 05:08:12;;;;;;;;;;;;;;;11.22;52.50;100499.69;4991798;28;97213;-83
2021/10/22 05:10:38;;;;;;;;;;;;;;;10.93;53.35;100498.22;4997957;28;96847;-84
2021/10/22 05:13:05;;;;;;;;;;;;;;;10.91;53.20;100504.50;5010769;28;98829;-83
2021/10/22 05:15:36;;;;;;;;;;;;;;;11.02;52.82;100504.94;5014058;28;101070;-85
2021/10/22 05:18:02;;;;;;;;;;;;;;;10.85;53.62;100500.31;4996859;28;96627;-85
2021/10/22 05:20:30;;;;;;;;;;;;;;;10.59;54.63;100505.78;4999959;28;96995;-83
2021/10/22 05:23:05;;;;;;;;;;;;;;;10.73;54.09;100512.25;5008074;28;97416;-84
2021/10/22 05:25:34;;;;;;;;;;;;;;;10.83;53.97;100506.59;5003985;28;101448;-84
2021/10/22 05:30:41;;;;;;;;;;;;;;;11.35;52.24;100507.97;4995117;28;96714;-84
2021/10/22 05:33:09;;;;;;;;;;;;;;;11.42;52.06;100496.19;5042548;28;100392;-84
2021/10/22 05:35:37;;;;;;;;;;;;;;;10.84;53.75;100492.44;5047571;28;101119;-85
2021/10/22 05:38:05;;;;;;;;;;;;;;;11.02;53.09;100499.66;5045881;28;96945;-85
2021/10/22 05:40:35;;;;;;;;;;;;;;;10.96;53.41;100507.84;5050801;28;96849;-84
2021/10/22 05:43:02;;;;;;;;;;;;;;;11.23;52.76;100493.44;5046017;27;99098;-84
2021/10/22 05:45:29;;;;;;;;;;;;;;;11.08;53.35;100504.69;5046002;28;99252;-84
2021/10/22 05:47:57;;;;;;;;;;;;;;;11.07;52.97;100495.03;5042622;27;96761;-84
2021/10/22 05:50:25;;;;;;;;;;;;;;;11.42;52.12;100490.91;5048433;28;96833;-83
2021/10/22 05:52:54;;;;;;;;;;;;;;;11.28;52.57;100495.91;5042280;27;101895;-83
2021/10/22 05:55:21;;;;;;;;;;;;;;;11.27;52.71;100496.84;5041500;28;99378;-83
2021/10/22 05:57:48;;;;;;;;;;;;;;;11.25;52.40;100502.19;5046551;27;96668;-83
2021/10/22 06:00:14;;;;;;;;;;;;;;;11.38;51.81;100499.88;5048673;28;96926;-84
2021/10/22 06:02:58;;;;;;;;;;;;;;;11.48;51.72;100490.63;5024051;27;96923;-82
2021/10/22 06:05:26;;;;;;;;;;;;;;;11.40;51.66;100490.09;5036294;28;99117;-83
2021/10/22 06:07:54;;;;;;;;;;;;;;;11.08;52.03;100484.38;5040011;27;96826;-84
2021/10/22 06:10:20;;;;;;;;;;;;;;;10.91;52.90;100493.91;5077565;27;96801;-80
2021/10/22 06:12:47;;;;;;;;;;;;;;;11.19;52.34;100494.50;5062858;27;99616;-84
2021/10/22 06:15:14;;;;;;;;;;;;;;;11.41;51.75;100495.34;5061791;27;98206;-84
2021/10/22 06:17:53;;;;;;;;;;;;;;;11.55;51.61;100492.91;5053224;27;96727;-84
2021/10/22 06:20:43;;;;;;;;;;;;;;;11.88;50.18;100500.38;5058975;28;96742;-85
2021/10/22 06:28:53;;;;;;;;;;;;;;;11.64;50.60;100493.47;2953656;22;99535;-84
2021/10/22 06:31:22;;;;;;;;;;;;;;;11.43;51.04;100492.59;5033680;27;96461;-83
2021/10/22 06:33:49;;;;;;;;;;;;;;;11.27;50.90;100492.41;5009766;28;97792;-83
2021/10/22 06:36:15;;;;;;;;;;;;;;;11.86;50.18;100488.97;5034315;27;99933;-83
2021/10/22 06:38:42;;;;;;;;;;;;;;;11.72;50.30;100489.56;5032868;27;97512;-84
2021/10/22 06:41:13;;;;;;;;;;;;;;;11.97;49.58;100482.25;5026711;28;96717;-85
2021/10/22 06:43:41;;;;;;;;;;;;;;;11.98;49.36;100480.47;5013626;28;96396;-83
2021/10/22 06:46:24;;;;;;;;;;;;;;;12.24;48.52;100487.22;5026832;28;100029;-83
2021/10/22 06:52:20;;;;;;;;;;;;;;;12.29;48.48;100488.72;5030606;27;99004;-83
2021/10/22 06:55:07;;;;;;;;;;;;;;;11.87;49.75;100491.56;5038596;27;100336;-86
2021/10/22 06:57:40;;;;;;;;;;;;;;;12.20;48.97;100488.31;5034893;28;99363;-85
2021/10/22 07:00:13;;;;;;;;;;;;;;;12.59;48.25;100488.22;5034035;28;96557;-85
2021/10/22 07:02:50;;;;;;;;;;;;;;;12.57;47.85;100475.03;5034545;28;96821;-86
2021/10/22 07:05:36;;;;;;;;;;;;;;;12.31;48.14;100481.56;5030536;28;98212;-85
2021/10/22 07:08:02;;;;;;;;;;;;;;;12.61;47.44;100483.69;5030766;28;99983;-85
2021/10/22 07:13:21;;;;;;;;;;;;;;;12.45;47.71;100488.03;5027209;28;96866;-84
2021/10/22 07:15:50;;;;;;;;;;;;;;;12.18;48.27;100483.06;5024223;28;99951;-84
2021/10/22 07:21:01;;;;;;;;;;;;;;;12.58;47.41;100494.47;5023709;28;96840;-83
2021/10/22 07:23:34;;;;;;;;;;;;;;;12.60;47.40;100484.66;5022288;28;96803;-85
2021/10/22 07:28:48;;;;;;;;;;;;;;;12.75;46.79;100475.94;5025291;28;98867;-84
2021/10/22 07:31:17;;;;;;;;;;;;;;;12.67;46.73;100488.69;5024015;28;96984;-84
2021/10/22 07:33:55;;;;;;;;;;;;;;;12.75;46.53;100483.88;5021015;28;97505;-84
2021/10/22 07:36:22;;;;;;;;;;;;;;;12.87;46.21;100477.97;5023195;28;101041;-83
2021/10/22 07:38:49;;;;;;;;;;;;;;;13.29;45.27;100466.22;5032987;28;98387;-83
2021/10/22 07:41:23;;;;;;;;;;;;;;;13.16;45.24;100485.41;5036028;27;96075;-81
2021/10/22 07:44:10;;;;;;;;;;;;;;;12.91;46.11;100478.72;5031051;28;96866;-86
2021/10/22 07:46:45;;;;;;;;;;;;;;;13.07;45.76;100477.84;5033951;28;101487;-84
2021/10/22 07:51:53;;;;;;;;;;;;;;;12.71;46.93;100469.06;5029774;28;96876;-82
2021/10/22 07:54:22;;;;;;;;;;;;;;;12.70;46.68;100470.00;5036695;28;96856;-82
2021/10/22 08:02:45;;;;;;;;;;;;;;;12.66;46.55;100487.88;5028756;28;97525;-85
2021/10/22 08:05:14;;;;;;;;;;;;;;;12.89;46.26;100478.78;5012543;28;96606;-83
2021/10/22 08:07:50;;;;;;;;;;;;;;;12.52;46.28;100479.72;5027397;28;98163;-83
2021/10/22 08:38:15;;;;;;;;;;;;;;;13.36;44.60;100452.56;5857812;23;4285882;-85
2021/10/22 08:43:28;;;;;;;;;;;;;;;13.61;43.72;100444.16;6041902;23;98646;-84
2021/10/22 08:48:43;;;;;;;;;;;;;;;13.27;44.03;100452.16;6041920;23;95997;-84
2021/10/22 08:51:15;;;;;;;;;;;;;;;13.46;43.72;100439.66;6041895;23;97967;-83
2021/10/22 08:54:02;;;;;;;;;;;;;;;13.54;43.81;100448.94;6042649;23;98884;-84
2021/10/22 08:56:32;;;;;;;;;;;;;;;13.50;43.85;100446.53;6036923;23;96774;-82
2021/10/22 08:58:58;;;;;;;;;;;;;;;13.44;43.86;100426.47;6027016;23;96615;-82
2021/10/22 09:01:25;;;;;;;;;;;;;;;13.55;43.72;100431.22;6031705;23;98698;-82
2021/10/22 09:03:52;;;;;;;;;;;;;;;13.77;43.28;100426.50;6036406;23;97250;-81
2021/10/22 09:06:19;;;;;;;;;;;;;;;14.02;42.63;100430.47;6040776;23;96302;-82
2021/10/22 09:08:46;;;;;;;;;;;;;;;14.00;42.65;100437.66;6036036;23;96583;-80
2021/10/22 09:11:21;;;;;;;;;;;;;;;13.67;43.48;100429.69;6031860;23;100083;-83
2021/10/22 09:14:02;;;;;;;;;;;;;;;14.11;42.82;100425.50;6039662;23;98671;-84
2021/10/22 09:16:29;;;;;;;;;;;;;;;14.35;42.15;100432.13;6041604;23;96582;-83
2021/10/22 09:18:58;;;;;;;;;;;;;;;14.46;41.69;100430.69;6041204;23;96452;-83
2021/10/22 09:21:26;;;;;;;;;;;;;;;14.55;42.20;100425.72;6040845;23;98446;-82
2021/10/22 09:24:13;;;;;;;;;;;;;;;14.52;41.48;100428.53;6039865;23;98464;-84
2021/10/22 09:26:41;;;;;;;;;;;;;;;14.43;41.93;100433.53;6041328;23;95879;-84
2021/10/22 09:29:22;;;;;;;;;;;;;;;14.40;42.67;100431.88;6042561;23;96016;-84
2021/10/22 09:31:52;;;;;;;;;;;;;;;14.06;42.80;100427.56;6034671;23;100556;-85
2021/10/22 09:34:29;;;;;;;;;;;;;;;14.00;43.21;100433.19;6029420;23;96526;-84
2021/10/22 09:36:58;;;;;;;;;;;;;;;14.01;43.45;100434.06;6021252;23;97433;-84
2021/10/22 09:39:26;;;;;;;;;;;;;;;14.42;43.11;100432.66;6023168;23;96576;-84
2021/10/22 09:42:01;;;;;;;;;;;;;;;14.14;43.58;100419.16;6024883;23;99839;-83
2021/10/22 09:47:31;;;;;;;;;;;;;;;14.49;42.64;100410.13;6020965;23;96667;-80
2021/10/22 09:50:06;;;;;;;;;;;;;;;14.58;42.36;100417.56;6020630;23;96673;-82
2021/10/22 09:52:40;;;;;;;;;;;;;;;14.59;42.34;100411.28;6016015;23;100537;-85
2021/10/22 09:55:14;;;;;;;;;;;;;;;14.08;43.03;100420.38;6024931;23;99066;-82
2021/10/22 09:57:44;;;;;;;;;;;;;;;14.51;42.39;100412.66;6029625;23;96558;-84
2021/10/22 10:00:12;;;;;;;;;;;;;;;14.19;42.84;100414.44;6025753;23;96545;-83
2021/10/22 10:02:55;;;;;;;;;;;;;;;14.07;43.47;100415.13;6027695;23;99237;-84
2021/10/22 10:05:25;;;;;;;;;;;;;;;14.27;42.74;100412.22;6027971;23;96706;-83
2021/10/22 10:07:52;;;;;;;;;;;;;;;14.23;43.58;100403.59;6023185;23;96534;-84
2021/10/22 10:10:21;;;;;;;;;;;;;;;14.07;43.95;100401.84;6025634;23;96727;-84
2021/10/22 10:12:54;;;;;;;;;;;;;;;14.48;43.23;100416.38;6025129;23;97659;-84
2021/10/22 10:15:23;;;;;;;;;;;;;;;14.53;43.23;100419.63;6026524;23;100286;-85
2021/10/22 10:20:34;;;;;;;;;;;;;;;14.40;43.05;100400.00;6025649;23;96830;-83
2021/10/22 10:23:04;;;;;;;;;;;;;;;14.30;43.33;100389.00;6024232;23;99228;-83
2021/10/22 10:28:15;;;;;;;;;;;;;;;14.19;43.51;100385.22;6024414;23;96735;-83
2021/10/22 10:30:43;;;;;;;;;;;;;;;14.05;43.69;100380.66;6024970;23;96596;-84
2021/10/22 10:36:52;;;;;;;;;;;;;;;13.77;44.26;100391.97;5113709;27;96673;-84
2021/10/22 10:39:38;;;;;;;;;;;;;;;14.06;43.94;100385.03;5106742;27;97100;-83
2021/10/22 10:45:01;;;;;;;;;;;;;;;14.22;43.42;100391.22;5094876;27;99615;-83
2021/10/22 10:47:51;;;;;;;;;;;;;;;14.41;43.06;100388.41;5099373;27;96701;-84
2021/10/22 10:50:21;;;;;;;;;;;;;;;14.20;43.36;100384.28;5088972;27;95937;-83
2021/10/22 10:53:06;;;;;;;;;;;;;;;14.11;43.77;100385.63;5106327;27;97841;-84
2021/10/22 10:55:35;;;;;;;;;;;;;;;14.17;43.73;100379.16;5103273;27;99512;-82
2021/10/22 10:58:15;;;;;;;;;;;;;;;14.27;43.62;100380.34;5105902;27;97612;-83
2021/10/22 11:00:47;;;;;;;;;;;;;;;14.07;43.91;100369.97;5085036;27;97239;-83
2021/10/22 11:03:21;;;;;;;;;;;;;;;13.23;45.55;100371.88;5092186;27;98076;-83
2021/10/22 11:08:53;;;;;;;;;;;;;;;14.05;44.61;100369.19;5097525;27;97670;-83
2021/10/22 11:11:36;;;;;;;;;;;;;;;14.03;44.39;100360.47;5094139;27;97286;-84
2021/10/22 11:22:30;;;;;;;;;;;;;;;14.06;43.77;100347.00;5090012;27;96762;-83
2021/10/22 11:24:56;;;;;;;;;;;;;;;13.82;44.22;100344.78;5084223;27;100880;-83
2021/10/22 11:30:08;;;;;;;;;;;;;;;14.35;43.50;100335.59;5106562;27;96561;-83
2021/10/22 11:32:36;;;;;;;;;;;;;;;14.42;43.01;100331.66;5105311;27;96728;-82
2021/10/22 11:37:45;;;;;;;;;;;;;;;14.15;43.34;100341.16;5095618;27;97288;-83
2021/10/22 11:40:21;;;;;;;;;;;;;;;14.21;43.25;100328.41;5087210;27;96695;-83
2021/10/22 11:42:57;;;;;;;;;;;;;;;14.21;42.86;100322.22;5087228;27;97896;-83
2021/10/22 11:48:11;;;;;;;;;;;;;;;14.46;42.59;100313.72;5078560;27;98932;-82
2021/10/22 11:50:39;;;;;;;;;;;;;;;14.30;42.65;100303.97;5076263;27;96770;-81
2021/10/22 11:53:23;;;;;;;;;;;;;;;14.25;42.72;100289.19;5061249;27;96840;-82
2021/10/22 11:56:05;;;;;;;;;;;;;;;14.32;42.33;100287.91;5075544;27;96286;-82
2021/10/22 12:01:27;;;;;;;;;;;;;;;14.10;42.49;100304.25;5070823;27;96546;-83
2021/10/22 12:04:11;;;;;;;;;;;;;;;14.16;42.33;100281.78;5083872;22;96810;-82
2021/10/22 12:06:40;;;;;;;;;;;;;;;14.47;42.15;100299.47;5040345;28;98850;-83
2021/10/22 12:15:03;;;;;;;;;;;;;;;14.33;42.34;100287.81;5032881;28;97356;-83
2021/10/22 12:17:48;;;;;;;;;;;;;;;14.12;42.61;100288.19;5045730;27;97703;-83
2021/10/22 12:20:21;;;;;;;;;;;;;;;14.43;42.02;100290.00;5040663;28;96922;-82
2021/10/22 12:22:56;;;;;;;;;;;;;;;14.33;42.23;100292.28;5035732;28;96654;-82
2021/10/22 12:25:26;;;;;;;;;;;;;;;14.48;42.18;100302.06;5034911;28;96562;-84
2021/10/22 12:27:54;;;;;;;;;;;;;;;14.48;41.98;100286.09;5036175;28;100228;-83
2021/10/22 12:30:44;;;;;;;;;;;;;;;14.23;43.26;100315.88;5038589;28;100002;-81
2021/10/22 12:33:12;;;;;;;;;;;;;;;14.26;42.71;100293.56;5027835;28;96835;-82
2021/10/22 12:36:03;;;;;;;;;;;;;;;14.17;43.23;100288.81;5035012;28;96859;-82
2021/10/22 12:41:14;;;;;;;;;;;;;;;14.18;42.96;100298.47;5035076;27;96890;-82
2021/10/22 12:43:52;;;;;;;;;;;;;;;14.42;43.17;100310.41;5036528;28;97971;-82
2021/10/22 12:46:19;;;;;;;;;;;;;;;14.45;43.21;100294.25;5033400;28;96806;-82
2021/10/22 12:48:52;;;;;;;;;;;;;;;14.55;43.22;100286.59;5030130;28;99281;-82
2021/10/22 12:51:25;;;;;;;;;;;;;;;15.03;42.18;100288.13;5023352;28;99279;-82
2021/10/22 12:53:53;;;;;;;;;;;;;;;14.56;42.07;100290.97;5021717;28;96747;-83
2021/10/22 12:56:25;;;;;;;;;;;;;;;14.33;43.68;100279.00;5036819;28;96806;-83
2021/10/22 12:58:59;;;;;;;;;;;;;;;14.95;42.35;100274.44;5035264;28;101664;-81
2021/10/22 13:01:31;;;;;;;;;;;;;;;15.03;42.26;100296.13;5034421;28;100031;-83
2021/10/22 13:04:01;;;;;;;;;;;;;;;14.57;43.59;100293.53;5028879;28;97266;-83
2021/10/22 13:06:37;;;;;;;;;;;;;;;14.31;44.93;100308.31;5022090;28;97581;-82
2021/10/22 13:09:31;;;;;;;;;;;;;;;13.71;47.23;100304.69;5032642;28;100755;-83
2021/10/22 13:15:02;;;;;;;;;;;;;;;14.07;47.40;100317.69;5030423;28;97278;-83
2021/10/22 13:23:01;;;;;;;;;;;;;;;14.05;50.80;100343.47;5030601;28;97098;-81
2021/10/22 13:25:30;;;;;;;;;;;;;;;13.54;51.75;100331.28;5035820;28;96779;-81
2021/10/22 13:27:57;;;;;;;;;;;;;;;14.02;51.48;100327.72;5035368;28;96857;-81
2021/10/22 13:30:36;;;;;;;;;;;;;;;12.90;54.44;100345.25;5034100;27;101354;-81
2021/10/22 13:35:45;;;;;;;;;;;;;;;13.96;52.25;100349.31;5032342;28;96848;-81
2021/10/22 13:38:16;;;;;;;;;;;;;;;13.70;52.83;100348.09;5040649;28;96385;-81
2021/10/22 13:40:45;;;;;;;;;;;;;;;13.09;54.49;100350.47;5035103;28;100796;-81
2021/10/22 13:43:17;;;;;;;;;;;;;;;13.48;54.67;100350.19;5040340;28;100648;-81
2021/10/22 13:45:45;;;;;;;;;;;;;;;13.51;54.50;100352.69;5038184;27;96067;-81
2021/10/22 13:48:12;;;;;;;;;;;;;;;13.18;56.79;100358.00;5039649;28;97222;-81
2021/10/22 13:50:40;;;;;;;;;;;;;;;13.50;55.67;100345.66;5037977;28;99324;-80
2021/10/22 13:53:07;;;;;;;;;;;;;;;13.86;54.57;100346.31;5045353;28;99326;-81
2021/10/22 13:55:36;;;;;;;;;;;;;;;13.36;55.89;100349.06;5037731;28;96352;-80
2021/10/22 13:58:03;;;;;;;;;;;;;;;13.37;56.54;100345.47;5032059;28;96100;-82
2021/10/22 14:00:30;;;;;;;;;;;;;;;13.64;55.44;100347.56;5044174;27;100002;-82
2021/10/22 14:03:03;;;;;;;;;;;;;;;12.98;56.97;100348.38;5041064;28;99405;-79
2021/10/22 14:05:30;;;;;;;;;;;;;;;12.48;58.96;100364.16;5035590;27;95925;-80
2021/10/22 14:10:49;;;;;;;;;;;;;;;13.08;57.25;100354.91;5036896;28;97635;-80
2021/10/22 14:13:21;;;;;;;;;;;;;;;13.25;56.82;100366.50;5038022;28;97935;-81
2021/10/22 14:29:40;;;;;;;;;;;;;;;12.45;60.54;100422.63;5035655;28;96528;-81
2021/10/22 14:32:08;;;;;;;;;;;;;;;12.79;59.51;100427.16;5035723;28;98633;-81
2021/10/22 14:34:36;;;;;;;;;;;;;;;12.55;61.00;100438.94;5035098;28;99430;-80
2021/10/22 14:39:44;;;;;;;;;;;;;;;13.00;59.53;100430.50;5043626;28;96660;-81
2021/10/22 14:42:12;;;;;;;;;;;;;;;12.42;61.65;100420.13;5038422;28;99719;-81
2021/10/22 14:47:35;;;;;;;;;;;;;;;12.90;60.54;100450.47;5037339;28;95914;-82
2021/10/22 14:58:11;;;;;;;;;;;;;;;12.64;60.91;100465.00;5034183;28;96664;-82
2021/10/22 15:00:47;;;;;;;;;;;;;;;12.71;59.98;100462.00;5034489;28;96055;-82
2021/10/22 15:03:14;;;;;;;;;;;;;;;12.76;60.48;100459.09;5035227;28;100454;-81
2021/10/22 15:05:43;;;;;;;;;;;;;;;13.06;59.72;100465.53;5041086;28;97699;-82
2021/10/22 15:13:35;;;;;;;;;;;;;;;13.27;59.23;100484.00;5032923;28;97727;-81
2021/10/22 15:16:09;;;;;;;;;;;;;;;12.54;60.25;100484.91;5033578;28;101134;-81
2021/10/22 15:18:35;;;;;;;;;;;;;;;12.56;60.40;100489.22;5038383;28;96809;-80
2021/10/22 15:21:02;;;;;;;;;;;;;;;12.98;59.86;100488.09;5037545;27;96077;-82
2021/10/22 15:23:29;;;;;;;;;;;;;;;12.24;62.14;100485.44;5039224;27;99945;-83
2021/10/22 15:25:56;;;;;;;;;;;;;;;12.55;61.64;100478.69;5047360;27;97514;-83
2021/10/22 15:28:25;;;;;;;;;;;;;;;12.99;60.49;100484.50;5036514;28;96100;-82
2021/10/22 15:36:25;;;;;;;;;;;;;;;12.28;62.86;100500.25;5040185;27;98425;-82
2021/10/22 15:38:54;;;;;;;;;;;;;;;12.43;62.65;100497.81;5041056;27;95982;-82
2021/10/22 15:41:21;;;;;;;;;;;;;;;12.60;61.71;100489.94;5040056;27;96132;-82
2021/10/22 15:43:52;;;;;;;;;;;;;;;12.56;62.68;100504.25;5039747;27;97984;-81
2021/10/22 15:49:15;;;;;;;;;;;;;;;13.16;61.04;100511.94;5039054;28;97162;-82